createdAt,value
2018-06-15T00:00:11.149Z,93.30
2018-06-15T00:02:52.952Z,93.10
2018-06-15T00:05:29.813Z,93.30
2018-06-15T00:08:06.953Z,94.20
2018-06-15T00:10:43.643Z,94.70
2018-06-15T00:13:20.891Z,94.80
2018-06-15T00:15:58.095Z,94.80
2018-06-15T00:18:34.629Z,97.30
2018-06-15T00:21:11.560Z,98.30
2018-06-15T00:23:48.578Z,98.20
2018-06-15T00:26:25.265Z,98.00
2018-06-15T00:29:02.388Z,98.00
2018-06-15T00:31:39.029Z,97.80
2018-06-15T00:34:16.068Z,97.60
2018-06-15T00:36:52.947Z,98.20
2018-06-15T00:39:30.168Z,98.70
2018-06-15T00:42:07.417Z,98.10
2018-06-15T00:44:44.801Z,97.90
2018-06-15T00:47:24.939Z,98.90
2018-06-15T00:50:09.575Z,99.90
2018-06-15T00:52:57.045Z,99.90
2018-06-15T00:55:33.468Z,99.90
2018-06-15T00:58:11.421Z,99.90
2018-06-15T01:00:48.620Z,99.90
2018-06-15T01:03:25.830Z,99.90
2018-06-15T01:06:02.966Z,99.90
2018-06-15T01:08:40.047Z,99.90
2018-06-15T01:11:17.051Z,99.90
2018-06-15T01:13:53.668Z,99.90
2018-06-15T01:16:30.796Z,99.90
2018-06-15T01:19:07.491Z,99.90
2018-06-15T01:21:44.980Z,99.90
2018-06-15T01:24:22.416Z,99.90
2018-06-15T01:26:59.089Z,99.90
2018-06-15T01:29:35.906Z,99.90
2018-06-15T01:32:12.843Z,99.90
2018-06-15T01:34:49.996Z,99.90
2018-06-15T01:37:26.708Z,99.90
2018-06-15T01:40:03.525Z,99.90
2018-06-15T01:42:40.653Z,99.90
2018-06-15T01:45:17.727Z,99.90
2018-06-15T01:47:54.345Z,99.90
2018-06-15T01:50:31.422Z,99.90
2018-06-15T01:53:09.484Z,99.90
2018-06-15T01:55:46.313Z,99.90
2018-06-15T01:58:23.625Z,99.90
2018-06-15T02:01:01.248Z,99.90
2018-06-15T02:03:38.132Z,99.90
2018-06-15T02:06:14.969Z,99.90
2018-06-15T02:08:51.841Z,99.90
2018-06-15T02:11:29.587Z,99.90
2018-06-15T02:14:06.885Z,99.90
2018-06-15T02:16:43.585Z,99.90
2018-06-15T02:19:20.515Z,99.90
2018-06-15T02:21:59.694Z,99.90
2018-06-15T02:24:37.370Z,99.90
2018-06-15T02:27:14.507Z,99.90
2018-06-15T02:29:51.226Z,99.90
2018-06-15T02:32:28.132Z,99.90
2018-06-15T02:35:04.841Z,99.90
2018-06-15T02:37:41.635Z,99.90
2018-06-15T02:40:19.276Z,99.90
2018-06-15T02:42:56.622Z,99.90
2018-06-15T02:45:33.896Z,99.90
2018-06-15T02:48:11.136Z,99.90
2018-06-15T02:50:48.806Z,99.90
2018-06-15T02:53:25.679Z,99.90
2018-06-15T02:56:02.510Z,99.90
2018-06-15T02:58:40.217Z,99.90
2018-06-15T03:01:17.068Z,99.90
2018-06-15T03:03:54.245Z,99.90
2018-06-15T03:06:32.597Z,99.90
2018-06-15T03:09:10.081Z,99.90
2018-06-15T03:11:46.724Z,99.90
2018-06-15T03:14:23.735Z,99.90
2018-06-15T03:19:37.331Z,99.90
2018-06-15T03:22:14.696Z,99.90
2018-06-15T03:24:51.944Z,99.90
2018-06-15T03:27:28.691Z,99.90
2018-06-15T03:30:05.877Z,99.90
2018-06-15T03:32:43.412Z,99.90
2018-06-15T03:35:20.198Z,99.90
2018-06-15T03:37:56.984Z,99.90
2018-06-15T03:40:33.962Z,99.90
2018-06-15T03:43:11.032Z,99.90
2018-06-15T03:45:48.207Z,99.90
2018-06-15T03:48:25.192Z,99.90
2018-06-15T03:51:02.501Z,99.90
2018-06-15T03:56:16.400Z,99.90
2018-06-15T03:58:52.965Z,99.90
2018-06-15T04:01:29.899Z,99.90
2018-06-15T04:04:06.662Z,99.90
2018-06-15T04:06:44.479Z,99.90
2018-06-15T04:09:21.674Z,99.90
2018-06-15T04:11:58.325Z,99.90
2018-06-15T04:14:35.134Z,99.90
2018-06-15T04:17:12.074Z,99.90
2018-06-15T04:19:49.215Z,99.90
2018-06-15T04:22:25.851Z,99.90
2018-06-15T04:25:02.684Z,99.90
2018-06-15T04:27:39.392Z,99.90
2018-06-15T04:30:16.290Z,99.90
2018-06-15T04:32:52.962Z,99.90
2018-06-15T04:35:30.029Z,99.90
2018-06-15T04:38:06.994Z,99.90
2018-06-15T04:40:43.717Z,99.90
2018-06-15T04:43:20.745Z,99.90
2018-06-15T04:45:57.886Z,99.90
2018-06-15T04:48:34.729Z,99.90
2018-06-15T04:51:11.768Z,99.90
2018-06-15T04:53:48.676Z,99.90
2018-06-15T04:56:26.092Z,99.90
2018-06-15T04:59:04.831Z,99.90
2018-06-15T05:01:42.310Z,99.80
2018-06-15T05:04:19.246Z,99.10
2018-06-15T05:06:56.081Z,98.00
2018-06-15T05:09:32.876Z,97.60
2018-06-15T05:12:09.592Z,97.50
2018-06-15T05:14:46.546Z,97.30
2018-06-15T05:17:23.464Z,97.40
2018-06-15T05:20:00.471Z,97.60
2018-06-15T05:22:37.623Z,97.70
2018-06-15T05:25:14.357Z,97.20
2018-06-15T05:27:51.756Z,96.60
2018-06-15T05:30:28.970Z,96.00
2018-06-15T05:33:06.070Z,95.80
2018-06-15T05:35:42.802Z,95.70
2018-06-15T05:38:19.737Z,95.60
2018-06-15T05:40:56.972Z,95.30
2018-06-15T05:43:34.341Z,95.20
2018-06-15T05:46:11.331Z,94.80
2018-06-15T05:48:48.107Z,94.90
2018-06-15T05:51:25.084Z,95.00
2018-06-15T05:54:01.899Z,94.90
2018-06-15T05:56:39.223Z,94.80
2018-06-15T05:59:15.705Z,94.90
2018-06-15T06:01:52.625Z,94.80
2018-06-15T06:04:29.500Z,94.80
2018-06-15T06:07:06.555Z,94.80
2018-06-15T06:09:43.321Z,94.90
2018-06-15T06:12:20.554Z,95.00
2018-06-15T06:14:57.196Z,94.90
2018-06-15T06:17:34.189Z,94.90
2018-06-15T06:20:11.527Z,95.30
2018-06-15T06:22:48.308Z,95.40
2018-06-15T06:25:25.290Z,95.00
2018-06-15T06:28:02.047Z,94.90
2018-06-15T06:30:38.680Z,94.60
2018-06-15T06:33:15.646Z,94.60
2018-06-15T06:35:52.428Z,94.40
2018-06-15T06:38:30.083Z,94.10
2018-06-15T06:41:07.627Z,93.90
2018-06-15T06:43:44.655Z,94.00
2018-06-15T06:46:21.407Z,93.90
2018-06-15T06:48:58.109Z,94.00
2018-06-15T06:51:35.240Z,94.10
2018-06-15T06:54:11.913Z,94.40
2018-06-15T06:56:52.667Z,94.00
2018-06-15T06:59:29.657Z,94.20
2018-06-15T07:02:06.464Z,93.90
2018-06-15T07:04:43.096Z,93.80
2018-06-15T07:07:20.301Z,93.40
2018-06-15T07:09:57.479Z,93.30
2018-06-15T07:12:34.770Z,93.10
2018-06-15T07:15:11.783Z,92.90
2018-06-15T07:17:48.576Z,92.60
2018-06-15T07:20:25.471Z,92.60
2018-06-15T07:23:02.376Z,92.60
2018-06-15T07:25:39.771Z,92.50
2018-06-15T07:30:53.230Z,92.70
2018-06-15T07:33:30.352Z,93.00
2018-06-15T07:36:07.286Z,92.90
2018-06-15T07:38:44.310Z,92.80
2018-06-15T07:41:22.420Z,92.90
2018-06-15T07:43:59.202Z,93.00
2018-06-15T07:46:36.235Z,92.70
2018-06-15T07:49:13.546Z,92.60
2018-06-15T07:51:50.820Z,92.90
2018-06-15T07:54:28.397Z,92.50
2018-06-15T07:57:05.329Z,92.60
2018-06-15T07:59:42.305Z,92.60
2018-06-15T08:02:20.297Z,92.60
2018-06-15T08:04:57.295Z,92.20
2018-06-15T08:07:34.884Z,92.30
2018-06-15T08:10:12.080Z,92.30
2018-06-15T08:12:48.856Z,91.40
2018-06-15T08:15:25.498Z,90.10
2018-06-15T08:18:03.090Z,88.60
2018-06-15T08:20:40.353Z,87.20
2018-06-15T08:23:17.508Z,87.90
2018-06-15T08:25:54.419Z,85.30
2018-06-15T08:28:31.073Z,82.20
2018-06-15T08:31:08.196Z,78.70
2018-06-15T08:33:45.243Z,79.30
2018-06-15T08:38:59.785Z,79.50
2018-06-15T08:41:36.367Z,80.60
2018-06-15T08:44:13.354Z,81.80
2018-06-15T08:49:26.902Z,83.40
2018-06-15T08:52:04.120Z,83.30
2018-06-15T08:54:40.604Z,86.00
2018-06-15T08:57:17.588Z,87.30
2018-06-15T08:59:54.724Z,87.50
2018-06-15T09:02:31.629Z,88.10
2018-06-15T09:05:08.588Z,86.10
2018-06-15T09:07:45.741Z,85.50
2018-06-15T09:10:22.633Z,84.30
2018-06-15T09:13:00.207Z,82.20
2018-06-15T09:15:37.389Z,90.70
2018-06-15T09:18:14.671Z,92.30
2018-06-15T09:20:52.105Z,93.00
2018-06-15T09:23:28.877Z,92.50
2018-06-15T09:26:06.161Z,92.30
2018-06-15T09:28:43.499Z,91.90
2018-06-15T09:31:20.972Z,92.10
2018-06-15T09:33:58.369Z,93.00
2018-06-15T09:36:35.299Z,93.20
2018-06-15T09:39:12.321Z,93.40
2018-06-15T09:41:49.434Z,94.40
2018-06-15T09:44:27.066Z,95.30
2018-06-15T09:47:04.215Z,95.40
2018-06-15T09:49:41.021Z,96.80
2018-06-15T09:52:17.871Z,97.40
2018-06-15T09:54:54.667Z,97.20
2018-06-15T09:57:31.681Z,97.00
2018-06-15T10:00:08.644Z,97.20
2018-06-15T10:02:45.794Z,95.60
2018-06-15T10:05:24.202Z,95.40
2018-06-15T10:08:01.330Z,95.00
2018-06-15T10:10:38.253Z,94.40
2018-06-15T10:13:15.845Z,93.60
2018-06-15T10:15:52.969Z,94.40
2018-06-15T10:18:29.904Z,93.40
2018-06-15T10:21:06.886Z,93.80
2018-06-15T10:23:43.664Z,93.40
2018-06-15T10:26:20.741Z,93.00
2018-06-15T10:28:57.459Z,92.90
2018-06-15T10:31:34.178Z,93.10
2018-06-15T10:34:10.967Z,93.30
2018-06-15T10:36:47.957Z,94.10
2018-06-15T10:39:25.704Z,94.20
2018-06-15T10:42:03.111Z,93.40
2018-06-15T10:44:40.884Z,92.60
2018-06-15T10:47:18.455Z,92.40
2018-06-15T10:49:55.330Z,91.50
2018-06-15T10:52:32.153Z,92.00
2018-06-15T10:55:09.474Z,91.80
2018-06-15T10:57:47.184Z,91.30
2018-06-15T11:00:24.294Z,91.40
2018-06-15T11:03:00.861Z,89.80
2018-06-15T11:05:37.744Z,91.20
2018-06-15T11:08:14.672Z,91.20
2018-06-15T11:10:51.565Z,90.90
2018-06-15T11:13:28.499Z,90.50
2018-06-15T11:16:05.656Z,90.60
2018-06-15T11:18:43.172Z,89.80
2018-06-15T11:21:20.799Z,90.20
2018-06-15T11:23:57.871Z,90.40
2018-06-15T11:26:35.116Z,90.10
2018-06-15T11:29:12.953Z,87.90
2018-06-15T11:31:50.683Z,84.00
2018-06-15T11:34:28.179Z,85.30
2018-06-15T11:37:06.294Z,84.20
2018-06-15T11:39:43.755Z,79.90
2018-06-15T11:42:20.735Z,77.60
2018-06-15T11:44:57.857Z,76.30
2018-06-15T11:47:35.518Z,80.10
2018-06-15T11:52:48.798Z,78.80
2018-06-15T11:58:04.276Z,76.80
2018-06-15T12:00:40.884Z,74.60
2018-06-15T12:03:17.765Z,74.80
2018-06-15T12:05:54.821Z,72.80
2018-06-15T12:08:33.559Z,72.60
2018-06-15T12:11:10.785Z,73.80
2018-06-15T12:13:49.169Z,73.00
2018-06-15T12:16:26.724Z,73.00
2018-06-15T12:19:03.460Z,73.40
2018-06-15T12:21:42.210Z,74.70
2018-06-15T12:24:20.210Z,74.40
2018-06-15T12:26:56.820Z,75.50
2018-06-15T12:29:34.590Z,76.50
2018-06-15T12:32:12.059Z,73.90
2018-06-15T12:34:50.693Z,74.60
2018-06-15T12:37:29.170Z,76.20
2018-06-15T12:40:06.426Z,72.60
2018-06-15T12:42:44.921Z,72.40
2018-06-15T12:48:25.285Z,69.10
2018-06-15T12:51:02.300Z,71.50
2018-06-15T12:53:39.307Z,72.00
2018-06-15T12:58:52.017Z,76.00
2018-06-15T13:01:32.326Z,74.30
2018-06-15T13:04:09.954Z,77.20
2018-06-15T13:06:47.499Z,80.80
2018-06-15T13:09:24.873Z,83.50
2018-06-15T13:12:01.940Z,84.50
2018-06-15T13:14:38.956Z,86.10
2018-06-15T13:17:15.766Z,86.70
2018-06-15T13:19:53.026Z,87.40
2018-06-15T13:22:30.875Z,88.50
2018-06-15T13:25:09.306Z,89.70
2018-06-15T13:27:46.142Z,90.50
2018-06-15T13:30:23.394Z,91.30
2018-06-15T13:33:00.894Z,90.90
2018-06-15T13:35:37.867Z,90.40
2018-06-15T13:38:16.017Z,90.70
2018-06-15T13:40:53.852Z,90.00
2018-06-15T13:43:30.967Z,90.70
2018-06-15T13:46:07.935Z,90.70
2018-06-15T13:48:45.684Z,90.90
2018-06-15T13:51:22.920Z,89.10
2018-06-15T13:54:01.193Z,88.60
2018-06-15T13:56:38.105Z,89.80
2018-06-15T13:59:14.938Z,90.00
2018-06-15T14:01:52.169Z,88.90
2018-06-15T14:04:29.599Z,89.00
2018-06-15T14:07:06.415Z,86.90
2018-06-15T14:09:43.371Z,88.40
2018-06-15T14:12:19.839Z,89.70
2018-06-15T14:14:57.178Z,90.80
2018-06-15T14:17:34.337Z,90.90
2018-06-15T14:20:11.729Z,90.60
2018-06-15T14:22:49.189Z,91.00
2018-06-15T14:25:26.321Z,90.70
2018-06-15T14:28:03.396Z,87.60
2018-06-15T14:30:40.514Z,81.20
2018-06-15T14:35:55.447Z,78.70
2018-06-15T14:38:32.973Z,78.00
2018-06-15T14:41:09.725Z,80.10
2018-06-15T14:43:47.157Z,79.70
2018-06-15T14:46:24.557Z,79.20
2018-06-15T14:49:01.846Z,78.80
2018-06-15T14:51:38.342Z,78.70
2018-06-15T14:54:15.269Z,78.90
2018-06-15T14:56:52.203Z,77.60
2018-06-15T14:59:29.123Z,78.70
2018-06-15T15:02:06.204Z,81.20
2018-06-15T15:04:42.967Z,82.80
2018-06-15T15:07:19.527Z,81.90
2018-06-15T15:09:56.885Z,82.10
2018-06-15T15:12:34.101Z,80.00
2018-06-15T15:15:12.225Z,79.70
2018-06-15T15:17:49.326Z,79.60
2018-06-15T15:20:26.229Z,78.80
2018-06-15T15:23:02.988Z,81.80
2018-06-15T15:25:40.185Z,82.90
2018-06-15T15:28:17.173Z,83.40
2018-06-15T15:30:53.821Z,82.30
2018-06-15T15:33:30.437Z,81.10
2018-06-15T15:36:07.293Z,78.50
2018-06-15T15:38:44.187Z,78.80
2018-06-15T15:41:20.939Z,78.80
2018-06-15T15:43:58.298Z,80.40
2018-06-15T15:46:35.055Z,79.40
2018-06-15T15:49:11.537Z,79.80
2018-06-15T15:51:48.848Z,78.90
2018-06-15T15:54:27.753Z,78.70
2018-06-15T15:57:05.480Z,80.40
2018-06-15T15:59:43.722Z,80.00
2018-06-15T16:02:20.821Z,79.30
2018-06-15T16:04:58.716Z,77.50
2018-06-15T16:07:36.099Z,77.20
2018-06-15T16:10:13.488Z,77.40
2018-06-15T16:12:50.413Z,75.90
2018-06-15T16:15:28.248Z,77.00
2018-06-15T16:18:05.662Z,78.60
2018-06-15T16:20:42.914Z,79.70
2018-06-15T16:23:20.235Z,79.60
2018-06-15T16:25:57.596Z,80.50
2018-06-15T16:28:36.889Z,80.50
2018-06-15T16:34:18.117Z,78.60
2018-06-15T16:36:55.321Z,79.10
2018-06-15T16:39:32.307Z,79.10
2018-06-15T16:42:09.057Z,79.70
2018-06-15T16:44:54.215Z,78.10
2018-06-15T16:47:32.113Z,79.00
2018-06-15T16:50:10.492Z,79.10
2018-06-15T16:52:47.654Z,78.70
2018-06-15T16:55:24.366Z,79.10
2018-06-15T16:58:01.090Z,78.30
2018-06-15T17:00:39.765Z,78.50
2018-06-15T17:03:17.696Z,80.50
2018-06-15T17:05:55.009Z,80.60
2018-06-15T17:08:34.141Z,81.20
2018-06-15T17:11:12.025Z,80.70
2018-06-15T17:13:52.122Z,79.90
2018-06-15T17:16:32.152Z,80.30
2018-06-15T17:19:10.204Z,80.30
2018-06-15T17:24:05.623Z,79.70
2018-06-15T17:26:44.033Z,80.20
2018-06-15T17:29:21.352Z,79.50
2018-06-15T17:31:59.728Z,78.30
2018-06-15T17:34:37.474Z,79.50
2018-06-15T17:37:14.237Z,77.70
2018-06-15T17:39:51.239Z,78.20
2018-06-15T17:42:28.402Z,77.90
2018-06-15T17:45:05.282Z,78.60
2018-06-15T17:47:42.054Z,78.20
2018-06-15T17:50:19.268Z,77.90
2018-06-15T17:52:56.068Z,78.20
2018-06-15T17:55:32.892Z,77.80
2018-06-15T17:58:10.065Z,77.60
2018-06-15T18:00:47.594Z,78.70
2018-06-15T18:06:01.364Z,79.30
2018-06-15T18:08:38.110Z,80.00
2018-06-15T18:11:14.973Z,81.00
2018-06-15T18:13:52.049Z,81.30
2018-06-15T18:16:29.856Z,80.50
2018-06-15T18:19:06.832Z,81.20
2018-06-15T18:21:43.757Z,81.90
2018-06-15T18:24:20.990Z,81.50
2018-06-15T18:26:57.691Z,81.00
2018-06-15T18:29:35.556Z,80.40
2018-06-15T18:32:12.824Z,80.00
2018-06-15T18:34:49.745Z,79.20
2018-06-15T18:37:27.017Z,79.50
2018-06-15T18:40:03.911Z,79.70
2018-06-15T18:42:40.939Z,77.70
2018-06-15T18:45:17.987Z,78.40
2018-06-15T18:47:55.143Z,77.30
2018-06-15T18:50:32.750Z,78.30
2018-06-15T18:53:11.379Z,75.70
2018-06-15T18:55:49.173Z,75.60
2018-06-15T18:58:26.500Z,75.50
2018-06-15T19:01:04.261Z,76.40
2018-06-15T19:03:41.566Z,76.70
2018-06-15T19:06:18.976Z,77.50
2018-06-15T19:08:55.936Z,78.10
2018-06-15T19:11:32.943Z,79.50
2018-06-15T19:14:09.771Z,79.90
2018-06-15T19:16:46.331Z,81.50
2018-06-15T19:19:23.167Z,82.60
2018-06-15T19:22:00.070Z,83.40
2018-06-15T19:24:36.979Z,84.30
2018-06-15T19:27:14.316Z,85.30
2018-06-15T19:29:52.181Z,85.70
2018-06-15T19:32:28.904Z,86.20
2018-06-15T19:35:06.003Z,86.10
2018-06-15T19:37:43.005Z,86.40
2018-06-15T19:40:19.321Z,86.30
2018-06-15T19:42:56.560Z,88.30
2018-06-15T19:45:33.271Z,89.30
2018-06-15T19:48:10.202Z,88.50
2018-06-15T19:50:47.048Z,88.80
2018-06-15T19:53:24.649Z,88.10
2018-06-15T19:56:02.262Z,88.70
2018-06-15T19:58:39.270Z,88.10
2018-06-15T20:01:15.881Z,86.80
2018-06-15T20:03:53.827Z,88.20
2018-06-15T20:06:32.511Z,87.40
2018-06-15T20:09:10.054Z,87.70
2018-06-15T20:11:50.057Z,88.10
2018-06-15T20:14:27.210Z,86.30
2018-06-15T20:17:04.888Z,87.50
2018-06-15T20:19:41.853Z,89.40
2018-06-15T20:22:18.550Z,89.70
2018-06-15T20:24:55.315Z,89.60
2018-06-15T20:27:32.345Z,89.70
2018-06-15T20:30:09.712Z,86.40
2018-06-15T20:32:47.224Z,84.40
2018-06-15T20:35:24.493Z,81.40
2018-06-15T20:38:01.425Z,78.80
2018-06-15T20:40:38.230Z,79.20
2018-06-15T20:43:15.302Z,79.80
2018-06-15T20:45:52.285Z,80.00
2018-06-15T20:48:29.532Z,77.80
2018-06-15T20:51:06.563Z,78.80
2018-06-15T20:58:56.526Z,77.20
2018-06-15T21:01:33.564Z,82.80
2018-06-15T21:04:10.719Z,84.30
2018-06-15T21:06:47.545Z,86.80
2018-06-15T21:09:25.061Z,86.90
2018-06-15T21:12:02.841Z,87.10
2018-06-15T21:14:39.759Z,88.20
2018-06-15T21:17:17.397Z,88.70
2018-06-15T21:19:54.787Z,89.40
2018-06-15T21:22:32.193Z,90.30
2018-06-15T21:25:09.188Z,90.20
2018-06-15T21:27:46.000Z,90.40
2018-06-15T21:30:23.253Z,90.50
2018-06-15T21:33:01.130Z,90.00
2018-06-15T21:35:38.331Z,89.70
2018-06-15T21:38:20.749Z,89.90
2018-06-15T21:40:57.978Z,90.40
2018-06-15T21:43:35.381Z,90.30
2018-06-15T21:46:12.614Z,91.00
2018-06-15T21:48:49.879Z,90.70
2018-06-15T21:51:27.207Z,90.60
2018-06-15T21:54:04.729Z,90.30
2018-06-15T21:56:41.267Z,90.20
2018-06-15T21:59:18.703Z,90.00
2018-06-15T22:01:55.337Z,86.60
2018-06-15T22:04:32.445Z,83.80
2018-06-15T22:07:09.405Z,77.10
2018-06-15T22:09:46.079Z,78.70
2018-06-15T22:12:23.633Z,78.80
2018-06-15T22:15:00.951Z,80.00
2018-06-15T22:17:38.048Z,78.00
2018-06-15T22:20:15.551Z,82.70
2018-06-15T22:22:53.202Z,84.20
2018-06-15T22:25:30.044Z,84.10
2018-06-15T22:28:07.902Z,83.60
2018-06-15T22:30:44.942Z,80.80
2018-06-15T22:33:21.821Z,80.10
2018-06-15T22:35:58.737Z,80.30
2018-06-15T22:38:35.913Z,80.20
2018-06-15T22:41:12.741Z,82.00
2018-06-15T22:43:49.927Z,82.20
2018-06-15T22:46:26.618Z,80.30
2018-06-15T22:49:03.697Z,79.50
2018-06-15T22:51:42.196Z,77.50
2018-06-15T22:54:19.252Z,77.60
2018-06-15T22:56:55.823Z,75.00
2018-06-15T22:59:34.515Z,75.80
2018-06-15T23:02:12.282Z,77.50
2018-06-15T23:07:24.862Z,79.10
2018-06-15T23:10:02.371Z,78.50
2018-06-15T23:12:39.316Z,78.80
2018-06-15T23:15:16.434Z,77.70
2018-06-15T23:17:53.430Z,78.00
2018-06-15T23:20:30.704Z,78.60
2018-06-15T23:23:07.270Z,78.60
2018-06-15T23:25:44.416Z,78.30
2018-06-15T23:28:21.104Z,77.50
2018-06-15T23:30:59.871Z,77.90
2018-06-15T23:33:37.299Z,78.60
2018-06-15T23:36:14.822Z,79.50
2018-06-15T23:38:52.089Z,79.00
2018-06-15T23:41:29.123Z,79.50
2018-06-15T23:44:06.183Z,79.20
2018-06-15T23:46:43.690Z,79.10
2018-06-15T23:49:20.784Z,78.50
2018-06-15T23:51:57.958Z,77.90
2018-06-15T23:54:34.717Z,77.30
2018-06-15T23:57:11.322Z,77.50
2018-06-15T23:59:48.264Z,77.40
